KTIW/TIW METAR and TAF weather

Enter ICAO airport designator
Station Type Date Time Source
KTIW METAR 2024/02/26 17:53 UTC NOAA

KTIW 261753Z 23007KT 10SM OVC019 04/00 A2983 RMK AO2 SLP103 T00390000 10039 20022 53014


Station Type Date Time Source
KTIW Decoded METAR 2024/02/26 17:53 UTC NOAA

Tacoma, Tacoma Narrows Airport, WA, United States (KTIW) 47-16-03N 122-34-34W 96M
Feb 26, 2024 - 12:53 PM EST / 2024.02.26 1753 UTC
Wind: from the SW (230 degrees) at 8 MPH (7 KT):0
Visibility: 10 mile(s):0
Sky conditions: overcast
Temperature: 39.0 F (3.9 C)
Dew Point: 32.0 F (0.0 C)
Relative Humidity: 75%
Pressure (altimeter): 29.83 in. Hg (1010 hPa)
Pressure tendency: 0.04 inches (1.4 hPa) higher than three hours ago
ob: KTIW 261753Z 23007KT 10SM OVC019 04/00 A2983 RMK AO2 SLP103 T00390000 10039 20022 53014
cycle: 18

Station Type Date Time Source
KTIW TAF UTC NOAA

Error!

Example: see airport list